createdAt,value
2022-11-05T00:01:28.331Z,84.56
2022-11-05T00:04:49.058Z,85.95
2022-11-05T00:08:11.825Z,85.09
2022-11-05T00:11:18.109Z,84.92
2022-11-05T00:14:39.687Z,85.43
2022-11-05T00:17:42.246Z,85.95
2022-11-05T00:20:44.971Z,88.54
2022-11-05T00:24:05.843Z,89.18
2022-11-05T00:27:10.694Z,90.45
2022-11-05T00:30:18.063Z,89.64
2022-11-05T00:33:23.153Z,90.13
2022-11-05T00:36:25.488Z,89.65
2022-11-05T00:39:27.872Z,88.65
2022-11-05T00:42:49.103Z,89.28
2022-11-05T00:45:51.484Z,90.07
2022-11-05T00:49:12.252Z,90.04
2022-11-05T00:52:33.063Z,90.20
2022-11-05T00:55:35.398Z,88.97
2022-11-05T00:58:37.848Z,88.88
2022-11-05T01:01:40.714Z,87.69
2022-11-05T01:04:43.226Z,87.82
2022-11-05T01:07:45.673Z,86.32
2022-11-05T01:10:51.454Z,85.04
2022-11-05T01:13:53.754Z,85.37
2022-11-05T01:16:56.170Z,84.97
2022-11-05T01:20:01.387Z,85.69
2022-11-05T01:23:05.480Z,85.50
2022-11-05T01:26:11.325Z,84.98
2022-11-05T01:29:13.786Z,85.58
2022-11-05T01:32:16.779Z,85.97
2022-11-05T01:35:19.154Z,86.57
2022-11-05T01:38:21.978Z,86.68
2022-11-05T01:41:24.324Z,87.20
2022-11-05T01:44:54.334Z,87.36
2022-11-05T01:48:02.569Z,87.35
2022-11-05T01:51:08.469Z,87.42
2022-11-05T01:54:14.306Z,87.20
2022-11-05T01:57:16.847Z,86.09
2022-11-05T02:00:20.854Z,87.01
2022-11-05T02:03:23.989Z,85.49
2022-11-05T02:06:27.565Z,86.37
2022-11-05T02:09:34.907Z,86.19
2022-11-05T02:12:39.890Z,85.56
2022-11-05T02:16:27.170Z,85.38
2022-11-05T02:20:00.400Z,86.34
2022-11-05T02:23:25.912Z,86.99
2022-11-05T02:27:02.310Z,86.51
2022-11-05T02:30:19.889Z,87.14
2022-11-05T02:33:35.808Z,87.53
2022-11-05T02:36:41.397Z,87.36
2022-11-05T02:40:05.582Z,88.28
2022-11-05T02:43:43.627Z,87.33
2022-11-05T02:46:52.968Z,87.37
2022-11-05T02:50:15.082Z,87.90
2022-11-05T02:53:35.305Z,87.69
2022-11-05T02:56:40.550Z,86.88
2022-11-05T02:59:43.085Z,86.60
2022-11-05T03:02:45.728Z,85.06
2022-11-05T03:06:19.089Z,83.35
2022-11-05T03:09:45.619Z,83.31
2022-11-05T03:12:48.088Z,82.89
2022-11-05T03:15:56.958Z,83.64
2022-11-05T03:19:08.537Z,83.58
2022-11-05T03:22:24.134Z,83.84
2022-11-05T03:25:28.319Z,83.82
2022-11-05T03:28:33.134Z,84.11
2022-11-05T03:31:37.307Z,84.74
2022-11-05T03:34:47.221Z,83.67
2022-11-05T03:37:51.256Z,84.87
2022-11-05T03:40:55.450Z,85.01
2022-11-05T03:43:58.851Z,84.98
2022-11-05T03:47:05.493Z,84.90
2022-11-05T03:50:14.180Z,84.14
2022-11-05T03:53:26.274Z,83.60
2022-11-05T03:56:30.779Z,83.65
2022-11-05T03:59:39.951Z,84.31
2022-11-05T04:02:42.590Z,83.05
2022-11-05T04:06:05.059Z,83.30
2022-11-05T04:09:26.031Z,82.18
2022-11-05T04:12:46.748Z,82.69
2022-11-05T04:16:07.494Z,83.57
2022-11-05T04:19:09.854Z,83.02
2022-11-05T04:22:30.982Z,83.79
2022-11-05T04:25:33.804Z,84.84
2022-11-05T04:28:54.543Z,85.20
2022-11-05T04:31:59.803Z,85.17
2022-11-05T04:35:02.122Z,85.92
2022-11-05T04:38:06.021Z,86.19
2022-11-05T04:41:17.692Z,87.11
2022-11-05T04:44:20.038Z,87.66
2022-11-05T04:47:22.372Z,87.68
2022-11-05T04:50:26.663Z,87.53
2022-11-05T04:53:29.257Z,88.01
2022-11-05T04:56:31.631Z,88.50
2022-11-05T04:59:33.974Z,88.41
2022-11-05T05:02:36.527Z,87.39
2022-11-05T05:05:38.883Z,87.45
2022-11-05T05:08:41.524Z,87.33
2022-11-05T05:11:43.929Z,87.07
2022-11-05T05:14:48.013Z,88.71
2022-11-05T05:17:53.553Z,89.27
2022-11-05T05:21:18.404Z,89.25
2022-11-05T05:24:21.408Z,89.97
2022-11-05T05:27:24.430Z,90.14
2022-11-05T05:30:29.364Z,90.45
2022-11-05T05:33:31.661Z,90.85
2022-11-05T05:36:34.055Z,90.36
2022-11-05T05:39:36.400Z,90.76
2022-11-05T05:42:42.929Z,90.62
2022-11-05T05:45:45.827Z,90.76
2022-11-05T05:48:50.028Z,91.46
2022-11-05T05:51:52.422Z,91.21
2022-11-05T05:54:54.830Z,91.59
2022-11-05T05:57:57.139Z,91.75
2022-11-05T06:01:17.418Z,91.93
2022-11-05T06:04:21.469Z,91.83
2022-11-05T06:07:23.843Z,92.14
2022-11-05T06:10:26.305Z,91.97
2022-11-05T06:13:29.265Z,92.01
2022-11-05T06:16:35.881Z,91.91
2022-11-05T06:19:38.385Z,92.26
2022-11-05T06:22:40.870Z,92.29
2022-11-05T06:25:43.243Z,92.11
2022-11-05T06:28:46.502Z,92.34
2022-11-05T06:31:48.979Z,93.00
2022-11-05T06:34:51.375Z,92.75
2022-11-05T06:37:53.758Z,93.38
2022-11-05T06:40:58.709Z,93.42
2022-11-05T06:44:01.177Z,93.22
2022-11-05T06:47:03.596Z,93.17
2022-11-05T06:50:06.485Z,92.71
2022-11-05T06:53:09.302Z,92.96
2022-11-05T06:56:12.133Z,93.23
2022-11-05T06:59:14.804Z,93.58
2022-11-05T07:02:18.294Z,92.93
2022-11-05T07:05:20.684Z,93.28
2022-11-05T07:08:24.053Z,93.06
2022-11-05T07:11:26.434Z,92.72
2022-11-05T07:14:30.125Z,91.88
2022-11-05T07:17:32.564Z,92.24
2022-11-05T07:20:35.449Z,92.60
2022-11-05T07:23:37.913Z,92.88
2022-11-05T07:26:40.256Z,92.23
2022-11-05T07:29:42.846Z,91.84
2022-11-05T07:32:45.351Z,91.25
2022-11-05T07:35:47.791Z,90.98
2022-11-05T07:38:50.170Z,91.51
2022-11-05T07:41:57.705Z,91.72
2022-11-05T07:45:07.877Z,92.00
2022-11-05T07:48:10.238Z,92.11
2022-11-05T07:51:12.550Z,92.26
2022-11-05T07:54:14.965Z,91.97
2022-11-05T07:57:17.359Z,92.23
2022-11-05T08:00:21.894Z,92.29
2022-11-05T08:03:24.603Z,92.33
2022-11-05T08:06:27.069Z,91.63
2022-11-05T08:09:29.520Z,91.86
2022-11-05T08:12:32.438Z,90.85
2022-11-05T08:15:35.469Z,91.03
2022-11-05T08:18:37.903Z,91.02
2022-11-05T08:21:40.348Z,91.00
2022-11-05T08:24:42.774Z,90.81
2022-11-05T08:27:45.806Z,91.05
2022-11-05T08:30:50.004Z,91.50
2022-11-05T08:33:57.119Z,91.69
2022-11-05T08:37:02.329Z,92.02
2022-11-05T08:40:05.319Z,91.29
2022-11-05T08:43:08.418Z,92.33
2022-11-05T08:46:11.083Z,92.43
2022-11-05T08:49:13.442Z,91.78
2022-11-05T08:52:15.950Z,91.68
2022-11-05T08:55:19.027Z,91.09
2022-11-05T08:58:21.413Z,90.95
2022-11-05T09:01:26.797Z,92.09
2022-11-05T09:04:30.500Z,91.94
2022-11-05T09:07:32.961Z,91.30
2022-11-05T09:10:35.868Z,91.25
2022-11-05T09:13:38.400Z,91.51
2022-11-05T09:16:42.522Z,90.92
2022-11-05T09:19:45.178Z,91.48
2022-11-05T09:22:47.648Z,91.73
2022-11-05T09:25:49.990Z,91.18
2022-11-05T09:28:52.353Z,90.90
2022-11-05T09:31:54.742Z,90.94
2022-11-05T09:34:57.098Z,91.10
2022-11-05T09:38:01.160Z,92.16
2022-11-05T09:41:24.216Z,92.32
2022-11-05T09:44:47.655Z,91.69
2022-11-05T09:47:54.725Z,92.10
2022-11-05T09:50:58.289Z,92.14
2022-11-05T09:54:00.775Z,92.14
2022-11-05T09:57:04.013Z,92.45
2022-11-05T10:00:08.603Z,92.27
2022-11-05T10:03:14.541Z,91.84
2022-11-05T10:06:22.122Z,91.46
2022-11-05T10:09:30.192Z,91.36
2022-11-05T10:12:40.371Z,91.44
2022-11-05T10:16:18.119Z,91.67
2022-11-05T10:19:24.553Z,92.03
2022-11-05T10:22:27.080Z,91.14
2022-11-05T10:25:32.023Z,90.81
2022-11-05T10:28:34.860Z,90.37
2022-11-05T10:31:37.822Z,90.58
2022-11-05T10:34:40.308Z,91.05
2022-11-05T10:37:42.670Z,90.70
2022-11-05T10:40:59.897Z,90.79
2022-11-05T10:44:23.473Z,90.64
2022-11-05T10:47:39.091Z,91.41
2022-11-05T10:50:44.176Z,91.80
2022-11-05T10:53:55.941Z,91.04
2022-11-05T10:57:01.170Z,91.30
2022-11-05T11:00:15.941Z,91.44
2022-11-05T11:03:40.088Z,91.00
2022-11-05T11:06:51.358Z,92.06
2022-11-05T11:09:54.012Z,92.24
2022-11-05T11:12:57.122Z,91.24
2022-11-05T11:16:19.909Z,91.56
2022-11-05T11:19:33.562Z,90.95
2022-11-05T11:22:35.885Z,91.39
2022-11-05T11:25:52.077Z,91.78
2022-11-05T11:29:23.515Z,92.02
2022-11-05T11:32:32.477Z,91.90
2022-11-05T11:35:37.862Z,91.18
2022-11-05T11:38:40.797Z,91.72
2022-11-05T11:41:44.234Z,91.85
2022-11-05T11:44:47.748Z,92.04
2022-11-05T11:47:50.966Z,92.47
2022-11-05T11:50:53.855Z,92.70
2022-11-05T11:53:58.362Z,92.92
2022-11-05T11:57:00.848Z,92.64
2022-11-05T12:00:11.256Z,92.51
2022-11-05T12:03:31.739Z,93.32
2022-11-05T12:07:05.685Z,92.75
2022-11-05T12:10:29.866Z,92.73
2022-11-05T12:13:55.390Z,93.07
2022-11-05T12:17:23.935Z,93.26
2022-11-05T12:20:34.154Z,93.10
2022-11-05T12:23:42.393Z,93.09
2022-11-05T12:27:11.050Z,92.50
2022-11-05T12:30:19.201Z,92.62
2022-11-05T12:33:33.806Z,93.16
2022-11-05T12:37:20.321Z,93.47
2022-11-05T12:40:50.567Z,93.70
2022-11-05T12:43:56.035Z,93.69
2022-11-05T12:47:14.663Z,94.00
2022-11-05T12:50:22.934Z,93.88
2022-11-05T12:53:34.366Z,94.01
2022-11-05T12:56:43.654Z,92.94
2022-11-05T13:00:06.741Z,92.70
2022-11-05T13:03:23.320Z,92.99
2022-11-05T13:06:30.996Z,93.03
2022-11-05T13:10:05.709Z,92.79
2022-11-05T13:13:38.219Z,93.26
2022-11-05T13:16:44.840Z,93.14
2022-11-05T13:19:52.608Z,92.56
2022-11-05T13:23:14.117Z,93.11
2022-11-05T13:26:27.550Z,92.72
2022-11-05T13:29:37.748Z,92.89
2022-11-05T13:32:45.049Z,93.64
2022-11-05T13:36:20.625Z,93.80
2022-11-05T13:39:25.087Z,93.75
2022-11-05T13:42:58.473Z,93.31
2022-11-05T13:46:25.207Z,93.41
2022-11-05T13:49:33.302Z,93.58
2022-11-05T13:52:50.872Z,92.75
2022-11-05T13:56:16.349Z,92.72
2022-11-05T13:59:48.906Z,92.82
2022-11-05T14:02:55.973Z,92.32
2022-11-05T14:06:10.030Z,92.54
2022-11-05T14:09:18.883Z,93.01
2022-11-05T14:12:36.793Z,92.48
2022-11-05T14:15:39.197Z,92.28
2022-11-05T14:18:44.311Z,92.24
2022-11-05T14:21:54.845Z,92.25
2022-11-05T14:24:57.943Z,91.16
2022-11-05T14:28:00.529Z,91.95
2022-11-05T14:31:05.398Z,92.49
2022-11-05T14:34:10.845Z,91.44
2022-11-05T14:37:13.341Z,91.81
2022-11-05T14:40:21.920Z,91.83
2022-11-05T14:43:26.022Z,91.83
2022-11-05T14:46:42.194Z,91.12
2022-11-05T14:50:09.200Z,91.35
2022-11-05T14:53:25.415Z,91.67
2022-11-05T14:56:27.910Z,91.60
2022-11-05T14:59:32.758Z,91.61
2022-11-05T15:02:38.532Z,91.04
2022-11-05T15:05:53.247Z,91.38
2022-11-05T15:08:56.400Z,91.40
2022-11-05T15:12:46.638Z,91.12
2022-11-05T15:15:50.758Z,90.61
2022-11-05T15:18:54.150Z,90.73
2022-11-05T15:21:58.699Z,91.23
2022-11-05T15:25:01.878Z,90.56
2022-11-05T15:28:27.265Z,90.48
2022-11-05T15:31:32.552Z,90.55
2022-11-05T15:34:35.712Z,90.08
2022-11-05T15:37:52.358Z,89.99
2022-11-05T15:41:03.001Z,90.20
2022-11-05T15:44:05.542Z,89.97
2022-11-05T15:47:16.891Z,89.96
2022-11-05T15:50:19.406Z,89.43
2022-11-05T15:53:51.552Z,90.00
2022-11-05T15:56:57.949Z,89.73
2022-11-05T16:00:04.844Z,89.69
2022-11-05T16:03:18.527Z,89.88
2022-11-05T16:06:23.586Z,89.50
2022-11-05T16:09:28.245Z,88.67
2022-11-05T16:12:35.475Z,89.05
2022-11-05T16:15:38.201Z,89.68
2022-11-05T16:18:41.723Z,89.22
2022-11-05T16:21:54.797Z,89.89
2022-11-05T16:24:57.443Z,89.16
2022-11-05T16:28:00.953Z,89.37
2022-11-05T16:31:05.774Z,90.18
2022-11-05T16:34:26.201Z,89.83
2022-11-05T16:37:31.713Z,89.88
2022-11-05T16:40:34.273Z,89.06
2022-11-05T16:43:36.941Z,89.64
2022-11-05T16:46:40.345Z,89.72
2022-11-05T16:49:42.983Z,89.21
2022-11-05T16:52:46.481Z,89.72
2022-11-05T16:55:49.757Z,89.49
2022-11-05T16:58:52.599Z,89.19
2022-11-05T17:01:56.085Z,89.17
2022-11-05T17:04:58.886Z,89.15
2022-11-05T17:08:03.523Z,89.83
2022-11-05T17:11:06.842Z,89.34
2022-11-05T17:14:13.103Z,89.80
2022-11-05T17:17:16.276Z,88.09
2022-11-05T17:20:39.890Z,88.70
2022-11-05T17:23:43.714Z,88.11
2022-11-05T17:26:46.521Z,88.72
2022-11-05T17:29:49.342Z,88.72
2022-11-05T17:32:52.424Z,89.14
2022-11-05T17:35:56.249Z,88.60
2022-11-05T17:38:58.925Z,88.39
2022-11-05T17:42:01.549Z,88.27
2022-11-05T17:45:04.810Z,87.83
2022-11-05T17:48:09.352Z,87.35
2022-11-05T17:51:18.523Z,88.16
2022-11-05T17:54:21.196Z,88.02
2022-11-05T17:57:23.915Z,88.43
2022-11-05T18:00:28.536Z,87.41
2022-11-05T18:03:31.663Z,88.06
2022-11-05T18:06:34.448Z,88.37
2022-11-05T18:09:37.784Z,89.15
2022-11-05T18:12:41.019Z,89.12
2022-11-05T18:15:44.691Z,89.37
2022-11-05T18:18:48.798Z,88.25
2022-11-05T18:21:51.625Z,89.43
2022-11-05T18:24:54.849Z,88.80
2022-11-05T18:27:57.679Z,88.60
2022-11-05T18:31:00.558Z,88.76
2022-11-05T18:34:03.655Z,89.25
2022-11-05T18:37:06.426Z,89.37
2022-11-05T18:40:10.057Z,88.74
2022-11-05T18:43:13.773Z,88.58
2022-11-05T18:46:43.148Z,88.33
2022-11-05T18:49:40.236Z,88.67
2022-11-05T18:52:43.303Z,88.95
2022-11-05T18:55:46.058Z,89.54
2022-11-05T18:58:49.730Z,89.11
2022-11-05T19:01:53.309Z,89.06
2022-11-05T19:05:26.650Z,88.64
2022-11-05T19:08:19.089Z,89.47
2022-11-05T19:11:23.652Z,89.21
2022-11-05T19:14:26.558Z,89.29
2022-11-05T19:17:29.401Z,89.36
2022-11-05T19:20:37.635Z,89.18
2022-11-05T19:23:41.140Z,88.78
2022-11-05T19:26:44.257Z,88.87
2022-11-05T19:29:47.684Z,88.31
2022-11-05T19:32:50.474Z,87.17
2022-11-05T19:35:53.287Z,87.39
2022-11-05T19:38:58.612Z,86.93
2022-11-05T19:42:03.770Z,86.76
2022-11-05T19:45:30.231Z,87.00
2022-11-05T19:48:31.516Z,87.41
2022-11-05T19:51:34.415Z,87.64
2022-11-05T19:54:37.533Z,87.37
2022-11-05T19:57:40.243Z,87.23
2022-11-05T20:00:43.392Z,86.92
2022-11-05T20:03:46.721Z,87.40
2022-11-05T20:06:49.659Z,86.94
2022-11-05T20:09:52.483Z,87.10
2022-11-05T20:12:55.209Z,87.09
2022-11-05T20:15:58.517Z,86.45
2022-11-05T20:19:01.312Z,86.64
2022-11-05T20:22:04.100Z,86.52
2022-11-05T20:25:07.134Z,87.05
2022-11-05T20:28:10.308Z,86.89
2022-11-05T20:31:15.638Z,87.13
2022-11-05T20:34:19.239Z,86.95
2022-11-05T20:37:21.940Z,87.27
2022-11-05T20:40:24.918Z,86.94
2022-11-05T20:43:30.652Z,87.39
2022-11-05T20:46:33.430Z,87.51
2022-11-05T20:49:36.262Z,87.03
2022-11-05T20:52:39.085Z,87.40
2022-11-05T20:55:46.650Z,85.93
2022-11-05T20:58:49.529Z,86.63
2022-11-05T21:01:52.416Z,86.56
2022-11-05T21:04:55.162Z,86.41
2022-11-05T21:07:57.982Z,86.71
2022-11-05T21:11:01.197Z,86.62
2022-11-05T21:14:03.961Z,86.41
2022-11-05T21:17:07.966Z,86.30
2022-11-05T21:20:10.720Z,86.42
2022-11-05T21:23:14.254Z,86.72
2022-11-05T21:26:18.012Z,86.36
2022-11-05T21:29:20.792Z,86.38
2022-11-05T21:32:23.311Z,86.07
2022-11-05T21:35:26.105Z,85.76
2022-11-05T21:38:29.130Z,86.21
2022-11-05T21:41:31.928Z,85.94
2022-11-05T21:44:34.747Z,85.99
2022-11-05T21:47:37.488Z,85.69
2022-11-05T21:50:59.567Z,85.85
2022-11-05T21:54:21.084Z,85.63
2022-11-05T21:57:42.384Z,85.44
2022-11-05T22:00:45.138Z,85.52
2022-11-05T22:03:49.897Z,85.73
2022-11-05T22:06:52.447Z,85.57
2022-11-05T22:09:55.406Z,85.50
2022-11-05T22:12:57.928Z,85.43
2022-11-05T22:16:00.707Z,85.84
2022-11-05T22:19:03.441Z,85.67
2022-11-05T22:22:06.862Z,85.63
2022-11-05T22:25:09.496Z,85.13
2022-11-05T22:28:12.439Z,84.66
2022-11-05T22:31:16.254Z,85.35
2022-11-05T22:34:19.049Z,85.57
2022-11-05T22:37:22.758Z,85.48
2022-11-05T22:40:25.401Z,85.53
2022-11-05T22:43:27.925Z,85.47
2022-11-05T22:46:30.657Z,85.38
2022-11-05T22:49:33.740Z,84.99
2022-11-05T22:52:36.211Z,84.71
2022-11-05T22:55:41.381Z,84.56
2022-11-05T22:58:43.864Z,83.83
2022-11-05T23:01:46.875Z,84.46
2022-11-05T23:04:51.503Z,83.85
2022-11-05T23:08:12.441Z,83.80
2022-11-05T23:11:41.196Z,83.55
2022-11-05T23:14:43.528Z,84.27
2022-11-05T23:18:04.237Z,84.07
2022-11-05T23:21:25.894Z,84.24
2022-11-05T23:24:28.408Z,83.86
2022-11-05T23:27:32.899Z,84.16
2022-11-05T23:30:56.879Z,84.05
2022-11-05T23:33:59.226Z,84.10
2022-11-05T23:37:20.139Z,83.96
2022-11-05T23:40:28.304Z,83.94
2022-11-05T23:43:49.388Z,84.25
2022-11-05T23:47:10.492Z,83.63
2022-11-05T23:50:13.016Z,84.26
2022-11-05T23:53:15.846Z,84.37
2022-11-05T23:56:18.223Z,84.49
2022-11-05T23:59:20.615Z,84.82
